sensor_id;sensor_type;location;lat;lon;timestamp;temperature;humidity
37408;DHT22;24866;50.248;8.252;2023-08-31T00:00:46;12.30;99.90
37408;DHT22;24866;50.248;8.252;2023-08-31T00:03:16;12.30;99.90
37408;DHT22;24866;50.248;8.252;2023-08-31T00:05:47;12.50;99.90
37408;DHT22;24866;50.248;8.252;2023-08-31T00:08:19;12.40;99.90
37408;DHT22;24866;50.248;8.252;2023-08-31T00:10:57;12.40;99.90
37408;DHT22;24866;50.248;8.252;2023-08-31T00:13:28;12.30;99.90
37408;DHT22;24866;50.248;8.252;2023-08-31T00:15:58;12.30;99.90
37408;DHT22;24866;50.248;8.252;2023-08-31T00:18:28;12.20;99.90
37408;DHT22;24866;50.248;8.252;2023-08-31T00:20:59;12.10;99.90
37408;DHT22;24866;50.248;8.252;2023-08-31T00:23:29;12.00;99.90
37408;DHT22;24866;50.248;8.252;2023-08-31T00:25:59;12.10;99.90
37408;DHT22;24866;50.248;8.252;2023-08-31T00:28:29;12.10;99.90
37408;DHT22;24866;50.248;8.252;2023-08-31T00:31:00;12.10;99.90
37408;DHT22;24866;50.248;8.252;2023-08-31T00:33:32;12.10;99.90
37408;DHT22;24866;50.248;8.252;2023-08-31T00:36:04;12.10;99.90
37408;DHT22;24866;50.248;8.252;2023-08-31T00:38:34;12.10;99.90
37408;DHT22;24866;50.248;8.252;2023-08-31T00:41:04;12.10;99.90
37408;DHT22;24866;50.248;8.252;2023-08-31T00:43:34;12.10;99.90
37408;DHT22;24866;50.248;8.252;2023-08-31T00:46:04;12.10;99.90
37408;DHT22;24866;50.248;8.252;2023-08-31T00:48:35;12.10;99.90
37408;DHT22;24866;50.248;8.252;2023-08-31T00:51:07;12.10;99.90
37408;DHT22;24866;50.248;8.252;2023-08-31T00:53:39;12.10;99.90
37408;DHT22;24866;50.248;8.252;2023-08-31T00:56:09;12.10;99.90
37408;DHT22;24866;50.248;8.252;2023-08-31T00:58:39;12.00;99.90
37408;DHT22;24866;50.248;8.252;2023-08-31T01:01:13;12.00;99.90
37408;DHT22;24866;50.248;8.252;2023-08-31T01:03:52;11.90;99.90
37408;DHT22;24866;50.248;8.252;2023-08-31T01:06:30;11.90;99.90
37408;DHT22;24866;50.248;8.252;2023-08-31T01:09:12;11.90;99.90
37408;DHT22;24866;50.248;8.252;2023-08-31T01:11:51;12.00;99.90
37408;DHT22;24866;50.248;8.252;2023-08-31T01:14:30;12.10;99.90
37408;DHT22;24866;50.248;8.252;2023-08-31T01:17:02;12.00;99.90
37408;DHT22;24866;50.248;8.252;2023-08-31T01:19:48;11.90;99.90
37408;DHT22;24866;50.248;8.252;2023-08-31T01:22:29;11.80;99.90
37408;DHT22;24866;50.248;8.252;2023-08-31T01:25:02;11.90;99.90
37408;DHT22;24866;50.248;8.252;2023-08-31T01:27:33;12.00;99.90
37408;DHT22;24866;50.248;8.252;2023-08-31T01:30:04;12.00;99.90
37408;DHT22;24866;50.248;8.252;2023-08-31T01:32:35;12.00;99.90
37408;DHT22;24866;50.248;8.252;2023-08-31T01:35:06;12.00;99.90
37408;DHT22;24866;50.248;8.252;2023-08-31T01:37:42;11.90;99.90
37408;DHT22;24866;50.248;8.252;2023-08-31T01:40:18;12.00;99.90
37408;DHT22;24866;50.248;8.252;2023-08-31T01:42:50;12.00;99.90
37408;DHT22;24866;50.248;8.252;2023-08-31T01:45:21;12.10;99.90
37408;DHT22;24866;50.248;8.252;2023-08-31T01:47:52;12.00;99.90
37408;DHT22;24866;50.248;8.252;2023-08-31T01:50:22;11.90;99.90
37408;DHT22;24866;50.248;8.252;2023-08-31T01:52:52;11.80;99.90
37408;DHT22;24866;50.248;8.252;2023-08-31T01:55:24;11.80;99.90
37408;DHT22;24866;50.248;8.252;2023-08-31T01:57:54;11.70;99.90
37408;DHT22;24866;50.248;8.252;2023-08-31T02:00:25;11.70;99.90
37408;DHT22;24866;50.248;8.252;2023-08-31T02:02:56;11.60;99.90
37408;DHT22;24866;50.248;8.252;2023-08-31T02:05:26;11.60;99.90
37408;DHT22;24866;50.248;8.252;2023-08-31T02:07:56;11.60;99.90
37408;DHT22;24866;50.248;8.252;2023-08-31T02:10:28;11.60;99.90
37408;DHT22;24866;50.248;8.252;2023-08-31T02:12:59;11.70;99.90
37408;DHT22;24866;50.248;8.252;2023-08-31T02:15:30;11.70;99.90
37408;DHT22;24866;50.248;8.252;2023-08-31T02:18:00;11.50;99.90
37408;DHT22;24866;50.248;8.252;2023-08-31T02:20:30;11.40;99.90
37408;DHT22;24866;50.248;8.252;2023-08-31T02:23:00;11.50;99.90
37408;DHT22;24866;50.248;8.252;2023-08-31T02:25:32;11.60;99.90
37408;DHT22;24866;50.248;8.252;2023-08-31T02:28:02;11.50;99.90
37408;DHT22;24866;50.248;8.252;2023-08-31T02:30:32;11.50;99.90
37408;DHT22;24866;50.248;8.252;2023-08-31T02:33:02;11.50;99.90
37408;DHT22;24866;50.248;8.252;2023-08-31T02:35:32;11.60;99.90
37408;DHT22;24866;50.248;8.252;2023-08-31T02:38:02;11.60;99.90
37408;DHT22;24866;50.248;8.252;2023-08-31T02:40:34;11.60;99.90
37408;DHT22;24866;50.248;8.252;2023-08-31T02:43:04;11.70;99.90
37408;DHT22;24866;50.248;8.252;2023-08-31T02:45:34;11.70;99.90
37408;DHT22;24866;50.248;8.252;2023-08-31T02:48:06;11.80;99.90
37408;DHT22;24866;50.248;8.252;2023-08-31T02:50:36;11.80;99.90
37408;DHT22;24866;50.248;8.252;2023-08-31T02:53:06;11.80;99.90
37408;DHT22;24866;50.248;8.252;2023-08-31T02:55:37;11.90;99.90
37408;DHT22;24866;50.248;8.252;2023-08-31T02:58:07;11.90;99.90
37408;DHT22;24866;50.248;8.252;2023-08-31T03:00:37;12.00;99.90
37408;DHT22;24866;50.248;8.252;2023-08-31T03:03:11;12.00;99.90
37408;DHT22;24866;50.248;8.252;2023-08-31T03:05:41;12.00;99.90
37408;DHT22;24866;50.248;8.252;2023-08-31T03:08:11;12.00;99.90
37408;DHT22;24866;50.248;8.252;2023-08-31T03:10:43;11.90;99.90
37408;DHT22;24866;50.248;8.252;2023-08-31T03:13:12;11.90;99.90
37408;DHT22;24866;50.248;8.252;2023-08-31T03:15:42;11.90;99.90
37408;DHT22;24866;50.248;8.252;2023-08-31T03:18:12;11.90;99.90
37408;DHT22;24866;50.248;8.252;2023-08-31T03:20:42;12.00;99.90
37408;DHT22;24866;50.248;8.252;2023-08-31T03:23:12;11.90;99.90
37408;DHT22;24866;50.248;8.252;2023-08-31T03:25:43;12.00;99.90
37408;DHT22;24866;50.248;8.252;2023-08-31T03:28:13;11.90;99.90
37408;DHT22;24866;50.248;8.252;2023-08-31T03:30:43;12.00;99.90
37408;DHT22;24866;50.248;8.252;2023-08-31T03:33:13;12.00;99.90
37408;DHT22;24866;50.248;8.252;2023-08-31T03:35:43;12.00;99.90
37408;DHT22;24866;50.248;8.252;2023-08-31T03:38:13;12.00;99.90
37408;DHT22;24866;50.248;8.252;2023-08-31T03:40:52;11.90;99.90
37408;DHT22;24866;50.248;8.252;2023-08-31T03:43:22;11.90;99.90
37408;DHT22;24866;50.248;8.252;2023-08-31T03:45:55;11.70;99.90
37408;DHT22;24866;50.248;8.252;2023-08-31T03:48:25;11.70;99.90
37408;DHT22;24866;50.248;8.252;2023-08-31T03:50:56;11.70;99.90
37408;DHT22;24866;50.248;8.252;2023-08-31T03:53:26;11.70;99.90
37408;DHT22;24866;50.248;8.252;2023-08-31T03:55:57;11.60;99.90
37408;DHT22;24866;50.248;8.252;2023-08-31T03:58:27;11.50;99.90
37408;DHT22;24866;50.248;8.252;2023-08-31T04:00:56;11.40;99.90
37408;DHT22;24866;50.248;8.252;2023-08-31T04:03:26;11.40;99.90
37408;DHT22;24866;50.248;8.252;2023-08-31T04:05:56;11.30;99.90
37408;DHT22;24866;50.248;8.252;2023-08-31T04:08:26;11.40;99.90
37408;DHT22;24866;50.248;8.252;2023-08-31T04:10:58;11.40;99.90
37408;DHT22;24866;50.248;8.252;2023-08-31T04:13:28;11.50;99.90
37408;DHT22;24866;50.248;8.252;2023-08-31T04:15:58;11.50;99.90
37408;DHT22;24866;50.248;8.252;2023-08-31T04:18:28;11.40;99.90
37408;DHT22;24866;50.248;8.252;2023-08-31T04:20:58;11.40;99.90
37408;DHT22;24866;50.248;8.252;2023-08-31T04:23:31;11.30;99.90
37408;DHT22;24866;50.248;8.252;2023-08-31T04:26:11;11.40;99.90
37408;DHT22;24866;50.248;8.252;2023-08-31T04:28:41;11.30;99.90
37408;DHT22;24866;50.248;8.252;2023-08-31T04:31:11;11.30;99.90
37408;DHT22;24866;50.248;8.252;2023-08-31T04:33:41;11.30;99.90
37408;DHT22;24866;50.248;8.252;2023-08-31T04:36:11;11.30;99.90
37408;DHT22;24866;50.248;8.252;2023-08-31T04:38:41;11.30;99.90
37408;DHT22;24866;50.248;8.252;2023-08-31T04:41:12;11.30;99.90
37408;DHT22;24866;50.248;8.252;2023-08-31T04:43:42;11.20;99.90
37408;DHT22;24866;50.248;8.252;2023-08-31T04:46:12;11.20;99.90
37408;DHT22;24866;50.248;8.252;2023-08-31T04:48:42;11.20;99.90
37408;DHT22;24866;50.248;8.252;2023-08-31T04:51:27;11.20;99.90
37408;DHT22;24866;50.248;8.252;2023-08-31T04:53:57;11.20;99.90
37408;DHT22;24866;50.248;8.252;2023-08-31T04:56:31;11.20;99.90
37408;DHT22;24866;50.248;8.252;2023-08-31T04:59:01;11.30;99.90
37408;DHT22;24866;50.248;8.252;2023-08-31T05:01:32;11.20;99.90
37408;DHT22;24866;50.248;8.252;2023-08-31T05:04:02;11.10;99.90
37408;DHT22;24866;50.248;8.252;2023-08-31T05:06:32;11.20;99.90
37408;DHT22;24866;50.248;8.252;2023-08-31T05:09:02;11.10;99.90
37408;DHT22;24866;50.248;8.252;2023-08-31T05:11:35;11.10;99.90
37408;DHT22;24866;50.248;8.252;2023-08-31T05:14:05;11.00;99.90
37408;DHT22;24866;50.248;8.252;2023-08-31T05:16:35;11.00;99.90
37408;DHT22;24866;50.248;8.252;2023-08-31T05:19:05;11.00;99.90
37408;DHT22;24866;50.248;8.252;2023-08-31T05:21:36;10.90;99.90
37408;DHT22;24866;50.248;8.252;2023-08-31T05:24:06;10.90;99.90
37408;DHT22;24866;50.248;8.252;2023-08-31T05:26:37;10.90;99.90
37408;DHT22;24866;50.248;8.252;2023-08-31T05:29:07;11.00;99.90
37408;DHT22;24866;50.248;8.252;2023-08-31T05:31:37;11.00;99.90
37408;DHT22;24866;50.248;8.252;2023-08-31T05:34:09;11.10;99.90
37408;DHT22;24866;50.248;8.252;2023-08-31T05:36:39;11.20;99.90
37408;DHT22;24866;50.248;8.252;2023-08-31T05:39:09;11.30;99.90
37408;DHT22;24866;50.248;8.252;2023-08-31T05:41:41;11.40;99.90
37408;DHT22;24866;50.248;8.252;2023-08-31T05:44:11;11.40;99.90
37408;DHT22;24866;50.248;8.252;2023-08-31T05:46:41;11.40;99.90
37408;DHT22;24866;50.248;8.252;2023-08-31T05:49:11;11.50;99.90
37408;DHT22;24866;50.248;8.252;2023-08-31T05:51:41;11.50;99.90
37408;DHT22;24866;50.248;8.252;2023-08-31T05:54:11;11.60;99.90
37408;DHT22;24866;50.248;8.252;2023-08-31T05:56:43;11.60;99.90
37408;DHT22;24866;50.248;8.252;2023-08-31T05:59:13;11.70;99.90
37408;DHT22;24866;50.248;8.252;2023-08-31T06:01:43;11.80;99.90
37408;DHT22;24866;50.248;8.252;2023-08-31T06:04:13;11.90;99.90
37408;DHT22;24866;50.248;8.252;2023-08-31T06:06:43;11.90;99.90
37408;DHT22;24866;50.248;8.252;2023-08-31T06:09:13;11.90;99.90
37408;DHT22;24866;50.248;8.252;2023-08-31T06:11:44;11.90;99.90
37408;DHT22;24866;50.248;8.252;2023-08-31T06:14:14;12.00;99.90
37408;DHT22;24866;50.248;8.252;2023-08-31T06:16:44;12.10;99.90
37408;DHT22;24866;50.248;8.252;2023-08-31T06:19:14;12.20;99.90
37408;DHT22;24866;50.248;8.252;2023-08-31T06:21:44;12.20;99.90
37408;DHT22;24866;50.248;8.252;2023-08-31T06:24:14;12.40;99.90
37408;DHT22;24866;50.248;8.252;2023-08-31T06:26:46;12.40;99.90
37408;DHT22;24866;50.248;8.252;2023-08-31T06:29:15;12.30;99.90
37408;DHT22;24866;50.248;8.252;2023-08-31T06:31:46;12.20;99.90
37408;DHT22;24866;50.248;8.252;2023-08-31T06:34:16;12.10;99.90
37408;DHT22;24866;50.248;8.252;2023-08-31T06:36:46;12.30;99.90
37408;DHT22;24866;50.248;8.252;2023-08-31T06:39:16;12.30;99.90
37408;DHT22;24866;50.248;8.252;2023-08-31T06:41:47;12.30;99.90
37408;DHT22;24866;50.248;8.252;2023-08-31T06:44:18;12.30;99.90
37408;DHT22;24866;50.248;8.252;2023-08-31T06:46:47;12.30;99.90
37408;DHT22;24866;50.248;8.252;2023-08-31T06:49:18;12.40;99.90
37408;DHT22;24866;50.248;8.252;2023-08-31T06:51:49;12.30;99.90
37408;DHT22;24866;50.248;8.252;2023-08-31T06:54:19;12.30;99.90
37408;DHT22;24866;50.248;8.252;2023-08-31T06:56:50;12.30;99.90
37408;DHT22;24866;50.248;8.252;2023-08-31T06:59:20;12.30;99.90
37408;DHT22;24866;50.248;8.252;2023-08-31T07:01:50;12.40;99.90
37408;DHT22;24866;50.248;8.252;2023-08-31T07:04:20;12.40;99.90
37408;DHT22;24866;50.248;8.252;2023-08-31T07:06:50;12.50;99.90
37408;DHT22;24866;50.248;8.252;2023-08-31T07:09:20;12.80;99.90
37408;DHT22;24866;50.248;8.252;2023-08-31T07:11:51;13.10;99.90
37408;DHT22;24866;50.248;8.252;2023-08-31T07:14:21;13.20;99.90
37408;DHT22;24866;50.248;8.252;2023-08-31T07:16:51;13.10;99.90
37408;DHT22;24866;50.248;8.252;2023-08-31T07:19:21;13.30;99.90
37408;DHT22;24866;50.248;8.252;2023-08-31T07:21:51;13.50;99.90
37408;DHT22;24866;50.248;8.252;2023-08-31T07:24:23;13.20;99.90
37408;DHT22;24866;50.248;8.252;2023-08-31T07:26:54;13.00;99.90
37408;DHT22;24866;50.248;8.252;2023-08-31T07:29:24;12.90;99.90
37408;DHT22;24866;50.248;8.252;2023-08-31T07:31:54;12.90;99.90
37408;DHT22;24866;50.248;8.252;2023-08-31T07:34:25;12.90;99.90
37408;DHT22;24866;50.248;8.252;2023-08-31T07:36:55;12.80;99.90
37408;DHT22;24866;50.248;8.252;2023-08-31T07:39:25;12.90;99.90
37408;DHT22;24866;50.248;8.252;2023-08-31T07:41:57;13.20;99.90
37408;DHT22;24866;50.248;8.252;2023-08-31T07:44:27;13.40;99.90
37408;DHT22;24866;50.248;8.252;2023-08-31T07:46:57;13.50;99.90
37408;DHT22;24866;50.248;8.252;2023-08-31T07:49:27;13.60;99.90
37408;DHT22;24866;50.248;8.252;2023-08-31T07:51:57;13.50;99.90
37408;DHT22;24866;50.248;8.252;2023-08-31T07:54:28;13.70;99.90
37408;DHT22;24866;50.248;8.252;2023-08-31T07:56:59;13.80;99.90
37408;DHT22;24866;50.248;8.252;2023-08-31T07:59:29;14.00;99.90
37408;DHT22;24866;50.248;8.252;2023-08-31T08:02:00;14.40;99.90
37408;DHT22;24866;50.248;8.252;2023-08-31T08:04:29;14.50;99.90
37408;DHT22;24866;50.248;8.252;2023-08-31T08:06:59;14.40;99.90
37408;DHT22;24866;50.248;8.252;2023-08-31T08:09:29;14.60;99.90
37408;DHT22;24866;50.248;8.252;2023-08-31T08:12:01;14.10;99.90
37408;DHT22;24866;50.248;8.252;2023-08-31T08:14:32;14.10;99.90
37408;DHT22;24866;50.248;8.252;2023-08-31T08:17:03;14.40;99.90
37408;DHT22;24866;50.248;8.252;2023-08-31T08:19:33;14.50;99.90
37408;DHT22;24866;50.248;8.252;2023-08-31T08:22:03;14.70;99.90
37408;DHT22;24866;50.248;8.252;2023-08-31T08:24:34;14.40;99.90
37408;DHT22;24866;50.248;8.252;2023-08-31T08:27:05;14.60;99.90
37408;DHT22;24866;50.248;8.252;2023-08-31T08:29:35;14.80;99.90
37408;DHT22;24866;50.248;8.252;2023-08-31T08:32:05;14.60;99.90
37408;DHT22;24866;50.248;8.252;2023-08-31T08:34:37;14.40;99.90
37408;DHT22;24866;50.248;8.252;2023-08-31T08:37:07;14.70;99.90
37408;DHT22;24866;50.248;8.252;2023-08-31T08:39:37;15.00;99.90
37408;DHT22;24866;50.248;8.252;2023-08-31T08:42:10;15.20;99.90
37408;DHT22;24866;50.248;8.252;2023-08-31T08:44:40;15.40;99.90
37408;DHT22;24866;50.248;8.252;2023-08-31T08:47:11;15.10;99.90
37408;DHT22;24866;50.248;8.252;2023-08-31T08:49:42;15.40;99.90
37408;DHT22;24866;50.248;8.252;2023-08-31T08:52:13;15.00;99.90
37408;DHT22;24866;50.248;8.252;2023-08-31T08:54:44;15.00;99.90
37408;DHT22;24866;50.248;8.252;2023-08-31T08:57:16;15.00;99.90
37408;DHT22;24866;50.248;8.252;2023-08-31T08:59:46;15.00;99.90
37408;DHT22;24866;50.248;8.252;2023-08-31T09:02:16;15.00;99.90
37408;DHT22;24866;50.248;8.252;2023-08-31T09:04:46;15.10;99.90
37408;DHT22;24866;50.248;8.252;2023-08-31T09:07:16;14.90;99.90
37408;DHT22;24866;50.248;8.252;2023-08-31T09:09:50;15.50;99.90
37408;DHT22;24866;50.248;8.252;2023-08-31T09:12:23;15.50;99.90
37408;DHT22;24866;50.248;8.252;2023-08-31T09:14:57;15.80;99.90
37408;DHT22;24866;50.248;8.252;2023-08-31T09:17:38;15.60;99.90
37408;DHT22;24866;50.248;8.252;2023-08-31T09:20:09;15.60;99.90
37408;DHT22;24866;50.248;8.252;2023-08-31T09:22:42;15.40;99.90
37408;DHT22;24866;50.248;8.252;2023-08-31T09:25:13;15.60;99.90
37408;DHT22;24866;50.248;8.252;2023-08-31T09:27:45;15.70;99.90
37408;DHT22;24866;50.248;8.252;2023-08-31T09:30:16;15.70;99.90
37408;DHT22;24866;50.248;8.252;2023-08-31T09:32:52;15.70;99.90
37408;DHT22;24866;50.248;8.252;2023-08-31T09:35:22;15.70;99.90
37408;DHT22;24866;50.248;8.252;2023-08-31T09:37:57;15.80;99.90
37408;DHT22;24866;50.248;8.252;2023-08-31T09:40:27;15.50;99.90
37408;DHT22;24866;50.248;8.252;2023-08-31T09:42:58;15.60;99.90
37408;DHT22;24866;50.248;8.252;2023-08-31T09:45:30;15.50;99.90
37408;DHT22;24866;50.248;8.252;2023-08-31T09:48:01;16.00;99.90
37408;DHT22;24866;50.248;8.252;2023-08-31T09:50:32;15.80;99.90
37408;DHT22;24866;50.248;8.252;2023-08-31T09:53:04;16.00;99.90
37408;DHT22;24866;50.248;8.252;2023-08-31T09:55:36;16.10;99.90
37408;DHT22;24866;50.248;8.252;2023-08-31T09:58:09;16.30;99.90
37408;DHT22;24866;50.248;8.252;2023-08-31T10:00:40;16.10;99.90
37408;DHT22;24866;50.248;8.252;2023-08-31T10:03:10;16.00;99.90
37408;DHT22;24866;50.248;8.252;2023-08-31T10:05:43;15.70;99.90
37408;DHT22;24866;50.248;8.252;2023-08-31T10:08:14;15.80;99.90
37408;DHT22;24866;50.248;8.252;2023-08-31T10:10:45;15.70;99.90
37408;DHT22;24866;50.248;8.252;2023-08-31T10:13:17;15.60;99.90
37408;DHT22;24866;50.248;8.252;2023-08-31T10:15:49;15.70;99.90
37408;DHT22;24866;50.248;8.252;2023-08-31T10:18:20;15.70;99.90
37408;DHT22;24866;50.248;8.252;2023-08-31T10:20:51;15.80;99.90
37408;DHT22;24866;50.248;8.252;2023-08-31T10:23:21;15.80;99.90
37408;DHT22;24866;50.248;8.252;2023-08-31T10:26:01;15.80;99.90
37408;DHT22;24866;50.248;8.252;2023-08-31T10:28:41;15.90;99.90
37408;DHT22;24866;50.248;8.252;2023-08-31T10:31:16;16.30;99.90
37408;DHT22;24866;50.248;8.252;2023-08-31T10:33:47;16.30;99.90
37408;DHT22;24866;50.248;8.252;2023-08-31T10:36:17;16.50;99.90
37408;DHT22;24866;50.248;8.252;2023-08-31T10:39:01;16.70;99.90
37408;DHT22;24866;50.248;8.252;2023-08-31T10:41:34;16.50;99.90
37408;DHT22;24866;50.248;8.252;2023-08-31T10:44:20;16.40;99.90
37408;DHT22;24866;50.248;8.252;2023-08-31T10:46:50;16.30;99.90
37408;DHT22;24866;50.248;8.252;2023-08-31T10:49:22;16.60;99.90
37408;DHT22;24866;50.248;8.252;2023-08-31T10:51:55;16.70;99.90
37408;DHT22;24866;50.248;8.252;2023-08-31T10:54:26;17.10;99.90
37408;DHT22;24866;50.248;8.252;2023-08-31T10:57:04;17.40;99.90
37408;DHT22;24866;50.248;8.252;2023-08-31T10:59:47;17.20;99.90
37408;DHT22;24866;50.248;8.252;2023-08-31T11:02:34;17.40;99.90
37408;DHT22;24866;50.248;8.252;2023-08-31T11:05:08;17.60;99.90
37408;DHT22;24866;50.248;8.252;2023-08-31T11:07:39;17.90;99.90
37408;DHT22;24866;50.248;8.252;2023-08-31T11:10:14;17.30;99.90
37408;DHT22;24866;50.248;8.252;2023-08-31T11:12:46;17.00;99.90
37408;DHT22;24866;50.248;8.252;2023-08-31T11:15:19;16.90;99.90
37408;DHT22;24866;50.248;8.252;2023-08-31T11:17:50;17.00;99.90
37408;DHT22;24866;50.248;8.252;2023-08-31T11:20:22;17.20;99.90
37408;DHT22;24866;50.248;8.252;2023-08-31T11:22:52;17.10;99.90
37408;DHT22;24866;50.248;8.252;2023-08-31T11:25:22;16.80;99.90
37408;DHT22;24866;50.248;8.252;2023-08-31T11:27:53;17.00;99.90
37408;DHT22;24866;50.248;8.252;2023-08-31T11:30:26;17.10;99.90
37408;DHT22;24866;50.248;8.252;2023-08-31T11:32:57;17.00;99.90
37408;DHT22;24866;50.248;8.252;2023-08-31T11:35:33;17.20;99.90
37408;DHT22;24866;50.248;8.252;2023-08-31T11:38:03;17.20;99.90
37408;DHT22;24866;50.248;8.252;2023-08-31T11:40:33;17.10;99.90
37408;DHT22;24866;50.248;8.252;2023-08-31T11:43:04;16.90;99.90
37408;DHT22;24866;50.248;8.252;2023-08-31T11:45:36;17.00;99.90
37408;DHT22;24866;50.248;8.252;2023-08-31T11:48:08;17.10;99.90
37408;DHT22;24866;50.248;8.252;2023-08-31T11:50:39;17.30;99.90
37408;DHT22;24866;50.248;8.252;2023-08-31T11:53:10;17.30;99.90
37408;DHT22;24866;50.248;8.252;2023-08-31T11:55:49;17.30;99.90
37408;DHT22;24866;50.248;8.252;2023-08-31T11:58:19;17.60;99.90
37408;DHT22;24866;50.248;8.252;2023-08-31T12:00:57;17.60;99.90
37408;DHT22;24866;50.248;8.252;2023-08-31T12:03:27;18.10;99.90
37408;DHT22;24866;50.248;8.252;2023-08-31T12:05:57;17.80;99.90
37408;DHT22;24866;50.248;8.252;2023-08-31T12:08:27;17.70;99.90
37408;DHT22;24866;50.248;8.252;2023-08-31T12:11:00;17.90;99.90
37408;DHT22;24866;50.248;8.252;2023-08-31T12:13:30;17.70;99.90
37408;DHT22;24866;50.248;8.252;2023-08-31T12:16:02;17.80;99.90
37408;DHT22;24866;50.248;8.252;2023-08-31T12:18:37;18.20;99.90
37408;DHT22;24866;50.248;8.252;2023-08-31T12:21:07;18.30;99.90
37408;DHT22;24866;50.248;8.252;2023-08-31T12:23:37;18.80;99.90
37408;DHT22;24866;50.248;8.252;2023-08-31T12:26:07;18.40;99.90
37408;DHT22;24866;50.248;8.252;2023-08-31T12:28:38;18.30;99.90
37408;DHT22;24866;50.248;8.252;2023-08-31T12:31:11;18.80;99.90
37408;DHT22;24866;50.248;8.252;2023-08-31T12:33:41;18.70;99.90
37408;DHT22;24866;50.248;8.252;2023-08-31T12:36:11;18.80;99.90
37408;DHT22;24866;50.248;8.252;2023-08-31T12:38:41;18.50;99.90
37408;DHT22;24866;50.248;8.252;2023-08-31T12:41:11;18.40;99.90
37408;DHT22;24866;50.248;8.252;2023-08-31T12:43:41;18.30;99.90
37408;DHT22;24866;50.248;8.252;2023-08-31T12:46:13;18.10;99.90
37408;DHT22;24866;50.248;8.252;2023-08-31T12:48:43;18.40;99.90
37408;DHT22;24866;50.248;8.252;2023-08-31T12:51:13;18.50;99.90
37408;DHT22;24866;50.248;8.252;2023-08-31T12:53:43;19.00;99.90
37408;DHT22;24866;50.248;8.252;2023-08-31T12:56:13;19.30;99.90
37408;DHT22;24866;50.248;8.252;2023-08-31T12:58:43;19.50;99.90
37408;DHT22;24866;50.248;8.252;2023-08-31T13:01:14;19.90;99.90
37408;DHT22;24866;50.248;8.252;2023-08-31T13:03:44;19.40;99.90
37408;DHT22;24866;50.248;8.252;2023-08-31T13:06:15;19.00;99.90
37408;DHT22;24866;50.248;8.252;2023-08-31T13:08:46;19.10;99.90
37408;DHT22;24866;50.248;8.252;2023-08-31T13:11:16;18.70;99.90
37408;DHT22;24866;50.248;8.252;2023-08-31T13:13:51;19.00;99.90
37408;DHT22;24866;50.248;8.252;2023-08-31T13:16:23;19.50;99.90
37408;DHT22;24866;50.248;8.252;2023-08-31T13:18:53;19.30;99.90
37408;DHT22;24866;50.248;8.252;2023-08-31T13:21:23;19.40;99.90
37408;DHT22;24866;50.248;8.252;2023-08-31T13:23:52;19.30;99.90
37408;DHT22;24866;50.248;8.252;2023-08-31T13:26:22;19.90;99.90
37408;DHT22;24866;50.248;8.252;2023-08-31T13:28:52;19.60;99.90
37408;DHT22;24866;50.248;8.252;2023-08-31T13:31:24;19.40;99.90
37408;DHT22;24866;50.248;8.252;2023-08-31T13:33:54;19.40;99.90
37408;DHT22;24866;50.248;8.252;2023-08-31T13:36:23;19.40;99.90
37408;DHT22;24866;50.248;8.252;2023-08-31T13:38:53;19.60;99.90
37408;DHT22;24866;50.248;8.252;2023-08-31T13:41:23;19.40;99.90
37408;DHT22;24866;50.248;8.252;2023-08-31T13:44:03;19.30;99.90
37408;DHT22;24866;50.248;8.252;2023-08-31T13:46:34;19.40;99.90
37408;DHT22;24866;50.248;8.252;2023-08-31T13:49:04;19.70;99.90
37408;DHT22;24866;50.248;8.252;2023-08-31T13:51:34;19.60;99.90
37408;DHT22;24866;50.248;8.252;2023-08-31T13:54:04;19.60;99.90
37408;DHT22;24866;50.248;8.252;2023-08-31T13:56:34;19.80;99.90
37408;DHT22;24866;50.248;8.252;2023-08-31T13:59:04;19.70;99.90
37408;DHT22;24866;50.248;8.252;2023-08-31T14:01:36;19.60;99.90
37408;DHT22;24866;50.248;8.252;2023-08-31T14:04:06;19.70;99.90
37408;DHT22;24866;50.248;8.252;2023-08-31T14:06:36;19.30;99.90
37408;DHT22;24866;50.248;8.252;2023-08-31T14:09:06;19.10;99.90
37408;DHT22;24866;50.248;8.252;2023-08-31T14:11:36;19.20;99.90
37408;DHT22;24866;50.248;8.252;2023-08-31T14:14:07;19.10;99.90
37408;DHT22;24866;50.248;8.252;2023-08-31T14:16:40;19.00;99.90
37408;DHT22;24866;50.248;8.252;2023-08-31T14:19:11;18.90;99.90
37408;DHT22;24866;50.248;8.252;2023-08-31T14:21:41;19.00;99.90
37408;DHT22;24866;50.248;8.252;2023-08-31T14:24:11;19.30;99.90
37408;DHT22;24866;50.248;8.252;2023-08-31T14:26:41;19.70;99.90
37408;DHT22;24866;50.248;8.252;2023-08-31T14:29:10;19.80;99.90
37408;DHT22;24866;50.248;8.252;2023-08-31T14:31:42;19.70;99.90
37408;DHT22;24866;50.248;8.252;2023-08-31T14:34:12;19.50;99.90
37408;DHT22;24866;50.248;8.252;2023-08-31T14:36:42;19.30;99.90
37408;DHT22;24866;50.248;8.252;2023-08-31T14:39:12;19.20;99.90
37408;DHT22;24866;50.248;8.252;2023-08-31T14:41:43;19.50;99.90
37408;DHT22;24866;50.248;8.252;2023-08-31T14:44:13;19.10;99.90
37408;DHT22;24866;50.248;8.252;2023-08-31T14:46:45;18.90;99.90
37408;DHT22;24866;50.248;8.252;2023-08-31T14:49:14;19.00;99.90
37408;DHT22;24866;50.248;8.252;2023-08-31T14:51:44;18.90;99.90
37408;DHT22;24866;50.248;8.252;2023-08-31T14:54:14;19.00;99.90
37408;DHT22;24866;50.248;8.252;2023-08-31T14:56:44;19.10;99.90
37408;DHT22;24866;50.248;8.252;2023-08-31T14:59:14;19.30;99.90
37408;DHT22;24866;50.248;8.252;2023-08-31T15:01:46;19.20;99.90
37408;DHT22;24866;50.248;8.252;2023-08-31T15:04:15;18.90;99.90
37408;DHT22;24866;50.248;8.252;2023-08-31T15:06:54;18.90;99.90
37408;DHT22;24866;50.248;8.252;2023-08-31T15:09:24;18.90;99.90
37408;DHT22;24866;50.248;8.252;2023-08-31T15:11:54;19.00;99.90
37408;DHT22;24866;50.248;8.252;2023-08-31T15:14:24;18.80;99.90
37408;DHT22;24866;50.248;8.252;2023-08-31T15:16:54;18.60;99.90
37408;DHT22;24866;50.248;8.252;2023-08-31T15:19:24;18.70;99.90
37408;DHT22;24866;50.248;8.252;2023-08-31T15:21:55;18.60;99.90
37408;DHT22;24866;50.248;8.252;2023-08-31T15:24:25;18.60;99.90
37408;DHT22;24866;50.248;8.252;2023-08-31T15:26:55;18.60;99.90
37408;DHT22;24866;50.248;8.252;2023-08-31T15:29:27;18.70;99.90
37408;DHT22;24866;50.248;8.252;2023-08-31T15:31:57;18.70;99.90
37408;DHT22;24866;50.248;8.252;2023-08-31T15:34:28;18.80;99.90
37408;DHT22;24866;50.248;8.252;2023-08-31T15:36:59;18.70;99.90
37408;DHT22;24866;50.248;8.252;2023-08-31T15:39:29;18.70;99.90
37408;DHT22;24866;50.248;8.252;2023-08-31T15:41:59;18.80;99.90
37408;DHT22;24866;50.248;8.252;2023-08-31T15:44:29;18.90;99.90
37408;DHT22;24866;50.248;8.252;2023-08-31T15:46:59;19.00;99.90
37408;DHT22;24866;50.248;8.252;2023-08-31T15:49:31;19.30;99.90
37408;DHT22;24866;50.248;8.252;2023-08-31T15:52:03;19.30;99.90
37408;DHT22;24866;50.248;8.252;2023-08-31T15:54:33;19.10;99.90